Time;durP1;ratioP1;P1;durP2;ratioP2;P2;SDS_P1;SDS_P2;PMS_P1;PMS_P2;Temp;Humidity;BMP_temperature;BMP_pressure;BME280_temperature;BME280_humidity;BME280_pressure;Samples;Min_cycle;Max_cycle;Signal;HPM_P1;HPM_P2
2022/02/26 00:01:05;;;;;;;5.50;2.80;;;;;;;2.69;98.63;152057.00;4990406;28;20449;-79
2022/02/26 00:03:41;;;;;;;5.47;2.83;;;;;;;2.69;99.00;152055.72;5007986;28;20444;-79
2022/02/26 00:06:17;;;;;;;3.60;2.60;;;;;;;2.68;99.38;152053.13;5008598;28;20456;-79
2022/02/26 00:08:54;;;;;;;7.47;3.33;;;;;;;2.67;99.58;152050.56;5003925;28;20464;-78
2022/02/26 00:11:30;;;;;;;6.10;3.00;;;;;;;2.66;99.02;152048.00;5007802;28;20475;-78
2022/02/26 00:14:06;;;;;;;5.07;3.03;;;;;;;2.59;99.25;152030.00;5005200;28;20464;-78
2022/02/26 00:16:41;;;;;;;6.27;2.90;;;;;;;2.60;99.59;152033.84;5024501;28;20482;-79
2022/02/26 00:19:17;;;;;;;4.40;2.80;;;;;;;2.62;99.24;152037.72;5007452;28;20488;-79
2022/02/26 00:21:53;;;;;;;4.53;2.90;;;;;;;2.62;99.52;152038.97;5005816;28;20452;-79
2022/02/26 00:24:30;;;;;;;4.33;3.33;;;;;;;2.69;98.57;152055.72;5006127;28;20809;-78
2022/02/26 00:27:06;;;;;;;4.53;3.07;;;;;;;2.62;99.60;152037.72;5021184;28;20551;-78
2022/02/26 00:29:42;;;;;;;4.47;2.90;;;;;;;2.60;99.81;152032.53;5024360;28;20452;-78
2022/02/26 00:32:17;;;;;;;5.07;3.37;;;;;;;2.64;100.00;152042.84;5007306;28;20487;-79
2022/02/26 00:34:53;;;;;;;4.23;3.00;;;;;;;2.66;99.52;152048.00;5006451;28;20472;-79
2022/02/26 00:37:28;;;;;;;4.50;3.13;;;;;;;2.65;99.85;152046.69;5008173;28;20876;-79
2022/02/26 00:40:09;;;;;;;4.83;3.00;;;;;;;2.66;99.35;152048.00;5007305;28;20456;-78
2022/02/26 00:42:45;;;;;;;5.47;2.90;;;;;;;2.65;99.73;152045.44;5023971;28;20445;-78
2022/02/26 00:45:20;;;;;;;5.47;2.80;;;;;;;2.68;100.00;152054.41;5022491;28;20464;-78
2022/02/26 00:47:56;;;;;;;8.50;2.83;;;;;;;2.71;99.75;152060.84;5025953;28;20872;-78
2022/02/26 00:50:31;;;;;;;3.87;2.53;;;;;;;2.73;99.98;152065.97;5004469;28;20443;-79
2022/02/26 00:53:06;;;;;;;6.93;3.33;;;;;;;2.73;99.26;152065.97;5006621;28;20452;-79
2022/02/26 00:55:43;;;;;;;3.13;2.83;;;;;;;2.75;98.33;152072.47;5005648;28;20456;-79
2022/02/26 00:58:19;;;;;;;5.13;3.40;;;;;;;2.76;99.58;152073.72;5036004;28;20557;-78
2022/02/26 01:00:54;;;;;;;3.83;2.70;;;;;;;2.71;99.82;152062.16;5009956;28;20850;-79
2022/02/26 01:03:30;;;;;;;5.47;3.50;;;;;;;2.74;99.79;152068.56;5026191;28;20451;-78
2022/02/26 01:06:06;;;;;;;5.63;3.13;;;;;;;2.76;98.98;152073.72;5025936;28;20439;-79
2022/02/26 01:08:41;;;;;;;3.40;3.00;;;;;;;2.77;100.00;152076.28;5022971;28;20443;-79
2022/02/26 01:11:18;;;;;;;2.90;2.43;;;;;;;2.76;100.00;152073.72;5023987;28;20590;-79
2022/02/26 01:13:54;;;;;;;4.20;3.00;;;;;;;2.75;100.00;152072.47;5028018;28;20587;-79
2022/02/26 01:16:29;;;;;;;4.00;2.80;;;;;;;2.78;100.00;152078.88;5043756;28;20978;-78
2022/02/26 01:19:05;;;;;;;6.00;3.60;;;;;;;2.80;99.74;152084.03;5011329;28;20479;-78
2022/02/26 01:21:41;;;;;;;6.37;3.30;;;;;;;2.82;99.81;152090.44;5026825;28;20561;-79
2022/02/26 01:24:16;;;;;;;3.97;3.00;;;;;;;2.77;99.93;152076.28;5043998;28;20543;-78
2022/02/26 01:26:53;;;;;;;4.90;3.40;;;;;;;2.81;99.48;152086.56;5039966;28;20438;-79
2022/02/26 01:29:29;;;;;;;4.90;3.23;;;;;;;2.76;98.14;152075.00;5042997;28;21025;-79
2022/02/26 01:32:05;;;;;;;4.03;3.07;;;;;;;2.77;99.34;152076.28;5009698;28;20459;-79
2022/02/26 01:34:40;;;;;;;7.13;4.00;;;;;;;2.80;98.61;152084.03;5043523;28;20551;-79
2022/02/26 01:37:16;;;;;;;5.43;3.50;;;;;;;2.78;98.57;152078.88;5041949;28;20460;-79
2022/02/26 01:39:55;;;;;;;4.57;3.00;;;;;;;2.79;99.90;152082.72;5006670;28;20922;-79
2022/02/26 01:42:32;;;;;;;6.50;3.80;;;;;;;2.73;98.20;152065.97;5025399;28;20487;-79
2022/02/26 01:45:11;;;;;;;4.50;3.17;;;;;;;2.73;98.90;152067.28;5012995;28;20447;-79
2022/02/26 01:47:47;;;;;;;3.27;2.93;;;;;;;2.71;98.79;152060.84;5016310;28;20456;-78
2022/02/26 01:50:23;;;;;;;3.60;2.83;;;;;;;2.70;100.00;152059.56;5029828;28;20783;-79
2022/02/26 01:52:58;;;;;;;7.90;4.00;;;;;;;2.71;99.56;152060.84;5045154;28;20553;-78
2022/02/26 01:55:34;;;;;;;4.60;3.23;;;;;;;2.70;98.67;152058.31;5031143;28;20463;-79
2022/02/26 01:58:11;;;;;;;4.50;3.97;;;;;;;2.69;98.98;152055.72;5044238;28;20478;-79
2022/02/26 02:00:47;;;;;;;4.50;2.97;;;;;;;2.64;98.88;152044.16;5032885;28;20439;-79
2022/02/26 02:03:23;;;;;;;8.47;3.93;;;;;;;2.69;99.10;152055.72;5049990;28;20878;-79
2022/02/26 02:05:59;;;;;;;5.03;3.17;;;;;;;2.67;99.03;152050.56;5026053;28;20442;-79
2022/02/26 02:08:36;;;;;;;5.70;3.57;;;;;;;2.70;98.87;152058.31;5018336;28;20461;-78
2022/02/26 02:11:12;;;;;;;4.67;3.60;;;;;;;2.69;99.58;152055.72;5045513;28;20496;-79
2022/02/26 02:13:49;;;;;;;5.07;3.50;;;;;;;2.65;98.15;152045.44;5031548;28;20477;-79
2022/02/26 02:16:25;;;;;;;6.03;3.70;;;;;;;2.66;97.23;152048.00;5016523;28;20675;-79
2022/02/26 02:19:05;;;;;;;8.33;3.37;;;;;;;2.60;98.22;152032.53;5046884;28;21670;-78
2022/02/26 02:21:40;;;;;;;6.20;4.13;;;;;;;2.58;98.61;152027.41;5028357;28;20541;-79
2022/02/26 02:24:17;;;;;;;8.07;4.00;;;;;;;2.55;97.97;152020.97;5045941;28;20957;-78
2022/02/26 02:26:53;;;;;;;9.50;4.10;;;;;;;2.55;100.00;152019.69;5047661;28;20454;-78
2022/02/26 02:29:29;;;;;;;5.83;3.63;;;;;;;2.53;99.96;152014.56;5046551;28;20442;-78
2022/02/26 02:32:06;;;;;;;6.73;3.80;;;;;;;2.53;99.36;152014.56;5047021;28;20544;-79
2022/02/26 02:34:41;;;;;;;7.20;4.20;;;;;;;2.51;99.69;152010.72;5032119;28;20447;-79
2022/02/26 02:37:17;;;;;;;5.23;3.80;;;;;;;2.50;100.00;152006.84;5045378;28;20786;-78
2022/02/26 02:39:54;;;;;;;6.70;3.50;;;;;;;2.50;100.00;152008.13;5017259;28;20450;-79
2022/02/26 02:42:29;;;;;;;8.87;3.63;;;;;;;2.53;100.00;152015.84;5033569;28;20533;-79
2022/02/26 02:45:06;;;;;;;6.67;3.87;;;;;;;2.54;100.00;152017.16;5036005;28;20442;-79
2022/02/26 02:47:41;;;;;;;7.17;4.33;;;;;;;2.53;99.63;152014.56;5049967;28;20554;-79
2022/02/26 02:50:18;;;;;;;9.57;4.33;;;;;;;2.45;100.00;151996.56;5049641;28;20446;-79
2022/02/26 02:52:53;;;;;;;7.27;4.27;;;;;;;2.47;100.00;152001.69;5026359;28;20883;-79
2022/02/26 02:55:31;;;;;;;5.43;4.10;;;;;;;2.47;100.00;152000.41;5045984;28;20470;-78
2022/02/26 02:58:06;;;;;;;7.43;4.30;;;;;;;2.51;100.00;152009.41;5049740;28;20537;-78
2022/02/26 03:00:43;;;;;;;5.60;4.20;;;;;;;2.51;100.00;152009.41;5028603;28;20458;-79
2022/02/26 03:03:19;;;;;;;5.90;4.37;;;;;;;2.53;100.00;152014.56;5049684;28;20450;-79
2022/02/26 03:05:55;;;;;;;6.00;4.53;;;;;;;2.51;100.00;152009.41;5043898;28;20440;-79
2022/02/26 03:08:30;;;;;;;5.60;4.10;;;;;;;2.48;100.00;152003.00;5015181;28;20459;-78
2022/02/26 03:11:07;;;;;;;6.87;4.90;;;;;;;2.49;100.00;152005.53;5033300;28;20454;-79
2022/02/26 03:13:45;;;;;;;12.63;5.60;;;;;;;2.49;100.00;152005.53;5045697;28;20798;-79
2022/02/26 03:16:20;;;;;;;8.23;5.10;;;;;;;2.46;100.00;151999.09;5048147;28;20482;-78
2022/02/26 03:18:56;;;;;;;10.27;5.43;;;;;;;2.48;100.00;152003.00;5030460;28;20446;-79
2022/02/26 03:21:32;;;;;;;9.47;5.50;;;;;;;2.51;100.00;152010.72;5047134;28;20852;-78
2022/02/26 03:24:10;;;;;;;11.07;5.10;;;;;;;2.45;100.00;151996.56;5048188;28;20459;-78
2022/02/26 03:26:53;;;;;;;7.63;5.47;;;;;;;2.44;100.00;151993.97;5032412;28;20490;-79
2022/02/26 03:29:29;;;;;;;11.63;6.07;;;;;;;2.42;100.00;151987.53;5046456;28;20427;-78
2022/02/26 03:32:05;;;;;;;10.10;6.10;;;;;;;2.42;100.00;151988.84;5036487;28;20443;-79
2022/02/26 03:34:41;;;;;;;8.80;6.00;;;;;;;2.44;100.00;151993.97;5028006;28;20442;-79
2022/02/26 03:37:17;;;;;;;9.40;5.60;;;;;;;2.44;100.00;151993.97;5043928;28;20435;-79
2022/02/26 03:39:52;;;;;;;10.53;6.23;;;;;;;2.41;100.00;151984.97;5041711;28;20451;-79
2022/02/26 03:42:29;;;;;;;9.43;6.00;;;;;;;2.39;100.00;151981.13;5047108;28;20455;-78
2022/02/26 03:45:06;;;;;;;10.70;5.90;;;;;;;2.38;100.00;151978.53;5047044;28;20943;-79
2022/02/26 03:47:42;;;;;;;9.70;5.90;;;;;;;2.41;100.00;151986.25;5030431;28;20457;-79
2022/02/26 03:50:17;;;;;;;8.30;5.33;;;;;;;2.39;100.00;151981.13;5030656;28;20550;-78
2022/02/26 03:52:53;;;;;;;14.00;6.33;;;;;;;2.39;100.00;151979.81;5015034;28;20446;-79
2022/02/26 03:55:28;;;;;;;8.03;5.60;;;;;;;2.35;100.00;151970.84;5045820;28;21004;-78
2022/02/26 03:58:05;;;;;;;11.50;6.10;;;;;;;2.35;100.00;151970.84;5027026;28;20506;-78
2022/02/26 04:00:41;;;;;;;9.93;6.37;;;;;;;2.32;100.00;151963.13;5044646;28;20435;-78
2022/02/26 04:03:16;;;;;;;8.10;5.40;;;;;;;2.28;100.00;151952.81;5045364;28;20959;-78
2022/02/26 04:05:52;;;;;;;10.43;5.63;;;;;;;2.29;100.00;151954.13;5049730;28;20446;-78
2022/02/26 04:08:28;;;;;;;8.03;6.10;;;;;;;2.25;100.00;151945.09;5047036;28;20442;-79
2022/02/26 04:11:04;;;;;;;10.23;6.93;;;;;;;2.23;100.00;151939.97;5046296;28;20525;-78
2022/02/26 04:13:41;;;;;;;8.80;6.60;;;;;;;2.20;100.00;151932.25;5047374;28;20533;-79
2022/02/26 04:16:16;;;;;;;11.57;6.30;;;;;;;2.19;100.00;151928.41;5026634;28;20563;-78
2022/02/26 04:18:52;;;;;;;11.53;5.97;;;;;;;2.18;100.00;151927.13;5047132;28;20687;-79
2022/02/26 04:21:30;;;;;;;10.33;6.30;;;;;;;2.14;100.00;151916.84;5046279;28;20929;-78
2022/02/26 04:24:06;;;;;;;13.03;6.53;;;;;;;2.16;100.00;151920.69;5025041;28;20459;-78
2022/02/26 04:26:41;;;;;;;10.27;5.57;;;;;;;2.10;100.00;151906.53;5016704;28;20450;-78
2022/02/26 04:29:18;;;;;;;12.10;5.90;;;;;;;2.11;100.00;151909.13;5034057;28;20505;-78
2022/02/26 04:31:54;;;;;;;10.03;5.53;;;;;;;2.08;100.00;151900.13;5041954;28;20811;-79
2022/02/26 04:34:29;;;;;;;10.27;5.33;;;;;;;2.02;100.00;151885.97;5044428;28;20450;-79
2022/02/26 04:37:05;;;;;;;8.77;5.57;;;;;;;1.98;100.00;151875.72;5047042;28;20502;-79
2022/02/26 04:39:41;;;;;;;8.90;5.23;;;;;;;1.99;100.00;151876.97;5030173;28;20450;-78
2022/02/26 04:42:16;;;;;;;11.07;6.70;;;;;;;1.95;100.00;151866.69;5042944;28;20458;-79
2022/02/26 04:44:53;;;;;;;12.30;6.50;;;;;;;1.94;100.00;151864.09;5014139;28;20459;-78
2022/02/26 04:47:29;;;;;;;9.70;5.67;;;;;;;1.92;100.00;151860.28;5046128;28;20443;-78
2022/02/26 04:50:06;;;;;;;7.60;5.17;;;;;;;1.92;100.00;151858.97;5029767;28;20454;-78
2022/02/26 04:52:42;;;;;;;8.10;5.03;;;;;;;1.89;100.00;151851.25;5045857;28;20461;-78
2022/02/26 04:55:18;;;;;;;11.83;5.83;;;;;;;1.88;100.00;151848.72;5028664;28;20438;-78
2022/02/26 04:57:54;;;;;;;10.07;6.70;;;;;;;1.88;100.00;151849.97;5038331;28;20854;-78
2022/02/26 05:00:31;;;;;;;7.67;5.50;;;;;;;1.85;100.00;151843.53;5011896;28;20467;-78
2022/02/26 05:03:07;;;;;;;11.13;5.70;;;;;;;1.85;100.00;151843.53;5043529;28;20451;-78
2022/02/26 05:05:42;;;;;;;8.63;5.10;;;;;;;1.87;100.00;151846.13;5026406;28;20546;-79
2022/02/26 05:08:18;;;;;;;13.97;5.17;;;;;;;1.83;100.00;151837.13;5010560;28;20820;-79
2022/02/26 05:10:54;;;;;;;10.30;5.57;;;;;;;1.85;100.00;151842.28;5024728;28;20452;-79
2022/02/26 05:13:30;;;;;;;9.17;5.70;;;;;;;1.88;100.00;151848.72;5025713;28;20950;-79
2022/02/26 05:16:07;;;;;;;9.77;6.13;;;;;;;1.87;100.00;151847.41;5025800;28;20478;-78
2022/02/26 05:18:43;;;;;;;9.90;5.57;;;;;;;1.84;100.00;151839.72;5023490;28;21018;-78
2022/02/26 05:21:18;;;;;;;8.40;6.17;;;;;;;1.87;100.00;151847.41;5042771;28;20557;-78
2022/02/26 05:23:54;;;;;;;9.30;5.63;;;;;;;1.90;100.00;151855.16;5027774;28;20465;-78
2022/02/26 05:26:30;;;;;;;9.57;5.73;;;;;;;1.95;100.00;151868.00;5025652;28;20928;-78
2022/02/26 05:29:05;;;;;;;10.30;5.70;;;;;;;1.94;100.00;151865.41;5013100;28;20455;-78
2022/02/26 05:31:42;;;;;;;8.20;5.70;;;;;;;1.91;100.00;151856.44;5043442;28;20822;-78
2022/02/26 05:34:18;;;;;;;8.33;5.60;;;;;;;1.93;100.00;151861.56;5011039;28;20498;-78
2022/02/26 05:36:54;;;;;;;12.10;6.13;;;;;;;1.95;100.00;151868.00;5041429;28;20463;-78
2022/02/26 05:39:29;;;;;;;8.00;5.20;;;;;;;1.92;100.00;151860.28;5027390;28;20442;-78
2022/02/26 05:42:05;;;;;;;8.90;5.27;;;;;;;1.91;100.00;151857.69;5041932;28;20447;-79
2022/02/26 05:44:41;;;;;;;9.10;5.93;;;;;;;1.91;100.00;151857.69;5043577;28;20527;-79
2022/02/26 05:47:18;;;;;;;9.30;5.67;;;;;;;1.89;100.00;151852.56;5031556;28;20482;-79
2022/02/26 05:49:53;;;;;;;12.03;6.03;;;;;;;1.89;100.00;151852.56;5043868;28;20443;-78
2022/02/26 05:52:29;;;;;;;8.60;6.17;;;;;;;1.93;100.00;151861.56;5039570;28;20543;-79
2022/02/26 05:55:06;;;;;;;11.23;6.30;;;;;;;1.94;100.00;151865.41;5026171;28;20479;-78
2022/02/26 05:57:42;;;;;;;8.40;6.30;;;;;;;1.94;100.00;151865.41;5038759;28;20487;-79
2022/02/26 06:00:18;;;;;;;9.30;6.40;;;;;;;1.94;100.00;151865.41;5024856;28;20458;-79
2022/02/26 06:02:54;;;;;;;23.53;8.60;;;;;;;1.94;100.00;151864.09;5034157;28;20443;-79
2022/02/26 06:05:30;;;;;;;11.60;6.13;;;;;;;1.94;100.00;151865.41;5027198;28;20461;-79
2022/02/26 06:08:06;;;;;;;11.37;7.20;;;;;;;1.90;100.00;151855.16;5042798;28;20482;-78
2022/02/26 06:10:41;;;;;;;11.30;6.77;;;;;;;1.91;100.00;151857.69;5041127;28;20936;-78
2022/02/26 06:13:17;;;;;;;13.73;6.83;;;;;;;1.94;100.00;151865.41;5039198;28;20534;-78
2022/02/26 06:15:52;;;;;;;8.73;7.03;;;;;;;1.95;100.00;151866.69;5038891;28;20445;-78
2022/02/26 06:18:29;;;;;;;14.37;7.77;;;;;;;1.96;100.00;151869.28;5010799;28;20459;-78
2022/02/26 06:21:05;;;;;;;9.60;6.30;;;;;;;1.96;100.00;151869.28;5022909;28;20451;-78
2022/02/26 06:23:42;;;;;;;11.27;7.57;;;;;;;1.93;100.00;151862.88;5032520;28;20455;-78
2022/02/26 06:26:20;;;;;;;17.70;7.57;;;;;;;1.95;100.00;151866.69;5042822;28;20455;-78
2022/02/26 06:29:07;;;;;;;13.20;7.40;;;;;;;1.95;100.00;151868.00;5025204;28;20467;-78
2022/02/26 06:31:42;;;;;;;15.57;7.57;;;;;;;1.96;100.00;151870.53;5024443;28;20467;-78
2022/02/26 06:34:20;;;;;;;11.27;6.50;;;;;;;1.96;100.00;151870.53;5012857;28;20451;-78
2022/02/26 06:36:56;;;;;;;12.43;7.87;;;;;;;2.01;100.00;151882.13;5013042;28;20478;-78
2022/02/26 06:39:31;;;;;;;10.77;7.23;;;;;;;1.99;100.00;151878.25;5026414;28;20444;-78
2022/02/26 06:42:07;;;;;;;17.20;7.63;;;;;;;1.97;100.00;151871.81;5013160;28;20447;-78
2022/02/26 06:44:43;;;;;;;14.17;7.70;;;;;;;1.97;100.00;151873.13;5041592;28;20479;-78
2022/02/26 06:47:19;;;;;;;10.70;6.60;;;;;;;1.98;100.00;151875.72;5021756;28;20478;-78
2022/02/26 06:49:55;;;;;;;14.20;8.40;;;;;;;2.03;100.00;151888.56;5045040;28;20442;-78
2022/02/26 06:52:31;;;;;;;9.93;7.03;;;;;;;1.97;100.00;151873.13;5044010;28;20969;-78
2022/02/26 06:55:08;;;;;;;10.27;6.63;;;;;;;1.98;100.00;151875.72;5026498;28;20638;-78
2022/02/26 06:57:43;;;;;;;11.50;7.23;;;;;;;2.02;100.00;151885.97;5044375;28;20499;-78
2022/02/26 07:00:19;;;;;;;9.50;7.10;;;;;;;2.02;100.00;151885.97;5013132;28;20448;-78
2022/02/26 07:02:55;;;;;;;17.60;7.43;;;;;;;2.01;100.00;151882.13;5028271;28;20459;-78
2022/02/26 07:05:32;;;;;;;14.17;7.77;;;;;;;2.01;100.00;151883.44;5012119;28;20469;-78
2022/02/26 07:08:07;;;;;;;16.10;7.57;;;;;;;2.01;100.00;151882.13;5047727;28;20849;-78
2022/02/26 07:10:43;;;;;;;12.10;7.83;;;;;;;1.98;100.00;151875.72;5027564;28;20460;-78
2022/02/26 07:13:18;;;;;;;11.90;7.37;;;;;;;2.01;100.00;151883.44;5043483;28;20463;-78
2022/02/26 07:15:54;;;;;;;12.80;7.50;;;;;;;2.03;100.00;151887.25;5027137;28;21003;-78
2022/02/26 07:18:30;;;;;;;15.90;7.80;;;;;;;2.04;100.00;151891.09;5028036;28;20966;-79
2022/02/26 07:21:07;;;;;;;10.73;7.17;;;;;;;2.03;100.00;151888.56;5041455;28;20541;-78
2022/02/26 07:23:43;;;;;;;14.33;8.37;;;;;;;2.04;100.00;151889.84;5042823;28;20451;-78
2022/02/26 07:26:18;;;;;;;13.73;7.37;;;;;;;2.00;100.00;151880.84;5042903;28;20451;-78
2022/02/26 07:28:54;;;;;;;15.23;9.67;;;;;;;2.06;100.00;151896.28;5026903;28;20845;-78
2022/02/26 07:31:30;;;;;;;10.20;7.13;;;;;;;2.05;100.00;151893.69;5009947;28;20455;-79
2022/02/26 07:34:05;;;;;;;12.47;7.77;;;;;;;2.07;100.00;151898.81;5008659;28;20865;-78
2022/02/26 07:36:42;;;;;;;12.80;8.37;;;;;;;2.08;100.00;151901.41;5027602;28;21194;-79
2022/02/26 07:39:18;;;;;;;12.20;8.47;;;;;;;2.11;100.00;151909.13;5025114;28;20451;-78
2022/02/26 07:41:54;;;;;;;15.77;7.90;;;;;;;2.11;100.00;151909.13;5039362;28;20456;-79
2022/02/26 07:44:30;;;;;;;15.33;8.20;;;;;;;2.15;100.00;151919.41;5041418;28;20837;-79
2022/02/26 07:47:06;;;;;;;12.60;8.07;;;;;;;2.16;100.00;151920.69;5022932;28;20455;-78
2022/02/26 07:49:42;;;;;;;17.53;8.00;;;;;;;2.19;100.00;151929.72;5040638;28;20467;-78
2022/02/26 07:52:19;;;;;;;14.73;10.17;;;;;;;2.21;100.00;151934.84;5020779;28;20462;-78
2022/02/26 07:54:55;;;;;;;11.17;7.63;;;;;;;2.25;100.00;151943.84;5038627;28;20785;-79
2022/02/26 07:57:31;;;;;;;15.03;8.20;;;;;;;2.29;100.00;151955.41;5023800;28;20486;-78
2022/02/26 08:00:08;;;;;;;15.67;9.03;;;;;;;2.31;100.00;151959.25;5025811;28;20452;-79
2022/02/26 08:02:46;;;;;;;14.40;8.43;;;;;;;2.26;100.00;151947.69;5022682;28;20463;-79
2022/02/26 08:05:22;;;;;;;12.97;8.47;;;;;;;2.31;100.00;151959.25;5024628;28;20439;-78
2022/02/26 08:07:59;;;;;;;12.57;8.40;;;;;;;2.42;100.00;151988.84;5023219;28;20479;-78
2022/02/26 08:10:35;;;;;;;14.57;7.73;;;;;;;2.45;100.00;151996.56;5040954;28;20541;-79
2022/02/26 08:13:11;;;;;;;11.40;8.30;;;;;;;2.44;99.27;151993.97;5041533;28;20471;-78
2022/02/26 08:15:47;;;;;;;14.43;8.40;;;;;;;2.50;98.49;152006.84;5017322;28;20451;-79
2022/02/26 08:18:23;;;;;;;13.77;9.40;;;;;;;2.45;98.32;151996.56;5022387;28;20984;-79
2022/02/26 08:21:10;;;;;;;15.20;7.80;;;;;;;2.47;98.74;152001.69;5038154;28;20539;-78
2022/02/26 08:23:48;;;;;;;13.10;8.00;;;;;;;2.36;98.14;151973.41;5034546;28;20448;-79
2022/02/26 08:26:23;;;;;;;16.03;9.37;;;;;;;2.39;97.59;151981.13;5041275;28;20554;-78
2022/02/26 08:28:59;;;;;;;12.03;7.83;;;;;;;2.43;97.75;151991.44;5006724;28;20435;-78
2022/02/26 08:31:34;;;;;;;20.87;9.33;;;;;;;2.43;97.91;151991.44;5024316;28;20462;-78
2022/02/26 08:34:10;;;;;;;11.80;8.23;;;;;;;2.46;98.76;151999.09;5026339;28;20534;-78
2022/02/26 08:36:45;;;;;;;13.17;7.53;;;;;;;2.50;96.84;152006.84;5026908;28;20483;-78
2022/02/26 08:39:24;;;;;;;9.77;7.30;;;;;;;2.56;96.41;152022.28;5011242;28;20459;-79
2022/02/26 08:41:59;;;;;;;13.77;8.27;;;;;;;2.56;96.03;152023.56;5023231;28;20453;-79
2022/02/26 08:44:35;;;;;;;27.07;9.40;;;;;;;2.62;95.93;152037.72;5025438;28;20431;-78
2022/02/26 08:47:11;;;;;;;12.20;7.47;;;;;;;2.73;95.25;152065.97;5023031;28;20451;-79
2022/02/26 08:49:47;;;;;;;19.37;8.03;;;;;;;2.84;94.54;152095.59;5024122;28;20969;-79
2022/02/26 08:52:23;;;;;;;11.17;7.57;;;;;;;2.97;94.10;152127.75;5009707;28;20451;-79
2022/02/26 08:55:00;;;;;;;11.70;8.10;;;;;;;3.20;93.36;152186.97;5026532;28;20455;-78
2022/02/26 08:57:35;;;;;;;12.13;8.70;;;;;;;3.32;91.62;152217.81;5039069;28;20986;-79
2022/02/26 09:00:12;;;;;;;11.20;7.13;;;;;;;3.40;89.18;152238.41;5039813;28;20444;-79
2022/02/26 09:02:51;;;;;;;11.93;8.10;;;;;;;3.46;88.66;152253.88;5024651;28;20448;-79
2022/02/26 09:05:30;;;;;;;8.93;6.37;;;;;;;3.33;88.47;152220.41;5024294;28;20803;-79
2022/02/26 09:08:08;;;;;;;13.10;7.83;;;;;;;3.27;88.44;152204.97;5025716;28;20440;-79
2022/02/26 09:10:56;;;;;;;9.60;6.27;;;;;;;3.26;86.83;152201.06;5037374;28;20460;-80
2022/02/26 09:13:32;;;;;;;13.47;8.57;;;;;;;3.23;87.59;152194.63;5025295;28;20459;-79
2022/02/26 09:16:08;;;;;;;7.80;6.40;;;;;;;3.33;87.17;152219.13;5026392;28;20483;-80
2022/02/26 09:18:44;;;;;;;7.83;6.00;;;;;;;3.48;88.18;152259.00;5013873;28;20459;-79
2022/02/26 09:21:19;;;;;;;12.10;6.77;;;;;;;3.37;83.66;152230.69;5030230;28;20830;-79
2022/02/26 09:23:55;;;;;;;9.40;7.10;;;;;;;3.35;84.76;152225.56;5044025;28;20806;-79
2022/02/26 09:26:32;;;;;;;14.70;9.20;;;;;;;3.37;84.70;152229.41;5042707;28;20510;-79
2022/02/26 09:29:08;;;;;;;12.90;9.30;;;;;;;3.51;85.40;152265.44;5034705;28;20831;-79
2022/02/26 09:31:43;;;;;;;13.70;6.63;;;;;;;3.54;83.55;152274.47;5024479;28;20969;-79
2022/02/26 09:34:19;;;;;;;12.50;7.13;;;;;;;3.72;83.82;152318.22;5022218;28;20443;-79
2022/02/26 09:36:55;;;;;;;17.73;8.63;;;;;;;3.63;83.38;152297.63;5041233;28;20451;-79
2022/02/26 09:39:30;;;;;;;13.87;7.80;;;;;;;3.55;83.64;152277.03;5011484;28;20455;-79
2022/02/26 09:42:08;;;;;;;11.23;8.27;;;;;;;3.54;82.92;152274.47;5041016;28;20463;-79
2022/02/26 09:44:44;;;;;;;11.57;6.10;;;;;;;3.54;80.00;152273.19;5041953;28;20922;-79
2022/02/26 09:47:20;;;;;;;7.33;4.60;;;;;;;3.49;76.34;152261.59;5028295;28;20439;-79
2022/02/26 09:49:55;;;;;;;9.80;5.03;;;;;;;3.51;77.48;152266.75;5020681;28;20550;-79
2022/02/26 09:52:31;;;;;;;8.47;6.43;;;;;;;3.43;76.82;152246.16;5024249;28;20443;-79
2022/02/26 09:55:08;;;;;;;10.77;5.90;;;;;;;3.39;74.82;152235.81;5025729;28;20459;-79
2022/02/26 09:57:45;;;;;;;7.17;4.63;;;;;;;3.36;75.61;152226.84;5019994;28;20832;-79
2022/02/26 10:00:20;;;;;;;9.33;3.93;;;;;;;3.21;69.70;152189.50;5010004;28;20500;-79
2022/02/26 10:02:56;;;;;;;8.83;5.63;;;;;;;3.23;66.04;152194.63;5019965;28;20452;-79
2022/02/26 10:05:32;;;;;;;8.33;3.60;;;;;;;3.20;65.55;152186.97;5024369;28;20537;-79
2022/02/26 10:08:19;;;;;;;3.53;1.93;;;;;;;3.27;62.87;152203.66;5045512;28;20795;-79
2022/02/26 10:10:54;;;;;;;3.53;2.40;;;;;;;3.29;63.17;152208.81;5042304;28;20783;-79
2022/02/26 10:13:36;;;;;;;3.80;3.00;;;;;;;3.34;61.90;152221.66;5026348;28;21017;-79
2022/02/26 10:16:11;;;;;;;3.00;1.90;;;;;;;3.42;62.20;152243.56;5026772;28;20444;-79
2022/02/26 10:18:54;;;;;;;6.13;1.70;;;;;;;3.65;62.49;152302.75;5030811;28;20469;-79
2022/02/26 10:21:30;;;;;;;4.20;2.23;;;;;;;3.82;63.18;152343.97;5026467;28;20448;-79
2022/02/26 10:24:06;;;;;;;2.80;1.83;;;;;;;4.05;62.36;152403.22;5026349;28;20439;-79
2022/02/26 10:26:50;;;;;;;7.30;2.70;;;;;;;4.09;60.75;152414.81;5044860;28;20486;-79
2022/02/26 10:29:28;;;;;;;3.77;1.80;;;;;;;4.12;61.12;152421.25;5025576;28;20769;-79
2022/02/26 10:32:04;;;;;;;6.93;3.00;;;;;;;4.34;61.86;152476.63;5045872;28;20463;-79
2022/02/26 10:34:41;;;;;;;4.70;2.07;;;;;;;4.58;61.22;152539.72;5029837;28;20938;-79
2022/02/26 10:37:17;;;;;;;5.47;2.87;;;;;;;4.17;59.79;152435.41;5029699;28;20492;-79
2022/02/26 10:39:54;;;;;;;7.07;3.17;;;;;;;4.07;61.56;152409.66;5013259;28;20455;-79
2022/02/26 10:42:32;;;;;;;6.70;2.53;;;;;;;3.95;60.08;152377.44;5045730;28;21202;-80
2022/02/26 10:45:10;;;;;;;4.83;2.40;;;;;;;3.92;61.04;152371.00;5043564;28;20448;-79
2022/02/26 10:47:46;;;;;;;4.27;3.40;;;;;;;4.22;62.15;152447.00;5043803;28;20790;-80
2022/02/26 10:50:23;;;;;;;8.20;2.80;;;;;;;4.04;59.43;152400.63;5012638;28;20459;-79
2022/02/26 10:53:00;;;;;;;3.77;2.40;;;;;;;3.88;60.77;152360.72;5041139;28;20440;-79
2022/02/26 10:55:52;;;;;;;5.03;2.60;;;;;;;4.17;61.03;152435.41;5042673;28;20534;-79
2022/02/26 10:58:29;;;;;;;3.73;2.30;;;;;;;4.06;60.32;152407.06;5045152;28;21049;-79
2022/02/26 11:01:08;;;;;;;3.87;2.50;;;;;;;4.04;61.07;152401.94;5043486;28;20448;-79
2022/02/26 11:03:44;;;;;;;3.03;2.00;;;;;;;4.04;60.42;152400.63;5043354;28;20507;-80
2022/02/26 11:06:20;;;;;;;4.10;2.10;;;;;;;3.99;60.26;152387.75;5013242;28;20553;-79
2022/02/26 11:08:56;;;;;;;3.63;2.40;;;;;;;4.06;61.00;152405.78;5027584;28;20452;-79
2022/02/26 11:11:32;;;;;;;4.70;2.77;;;;;;;4.16;59.94;152431.53;5026854;28;20552;-79
2022/02/26 11:14:09;;;;;;;3.67;2.20;;;;;;;4.08;60.86;152412.22;5027391;28;20546;-79
2022/02/26 11:16:47;;;;;;;3.20;1.80;;;;;;;4.03;61.18;152399.34;5024705;28;20444;-79
2022/02/26 11:19:25;;;;;;;6.43;3.00;;;;;;;4.04;62.30;152400.63;5026022;28;20554;-79
2022/02/26 11:22:01;;;;;;;6.70;3.03;;;;;;;4.23;62.73;152450.88;5042127;28;20445;-79
2022/02/26 11:24:37;;;;;;;4.70;3.57;;;;;;;4.30;62.20;152467.59;5025957;28;20441;-79
2022/02/26 11:27:14;;;;;;;5.37;3.43;;;;;;;4.29;62.43;152466.31;5022672;28;20562;-79
2022/02/26 11:29:50;;;;;;;4.57;2.27;;;;;;;4.25;62.30;152454.72;5010166;28;20483;-79
2022/02/26 11:32:30;;;;;;;3.50;2.40;;;;;;;4.23;63.89;152449.59;5044363;28;20469;-79
2022/02/26 11:35:16;;;;;;;3.90;2.43;;;;;;;4.21;64.16;152444.41;5042060;28;20451;-79
2022/02/26 11:37:53;;;;;;;4.97;3.60;;;;;;;4.21;65.17;152444.41;5011324;28;20491;-79
2022/02/26 11:40:28;;;;;;;8.37;4.03;;;;;;;4.08;64.12;152410.91;5043975;28;20534;-79
2022/02/26 11:43:04;;;;;;;5.00;4.00;;;;;;;4.13;66.70;152423.84;5029207;28;20470;-79
2022/02/26 11:45:39;;;;;;;12.93;4.30;;;;;;;4.18;65.60;152436.72;5010744;28;20934;-79
2022/02/26 11:48:17;;;;;;;6.57;3.23;;;;;;;4.25;65.26;152454.72;5025704;28;20435;-79
2022/02/26 11:50:53;;;;;;;6.03;3.27;;;;;;;4.31;63.69;152470.19;5011048;28;20452;-79
2022/02/26 11:53:41;;;;;;;5.70;3.80;;;;;;;4.33;63.50;152475.34;5027664;28;20451;-79
2022/02/26 11:56:17;;;;;;;5.43;4.27;;;;;;;4.46;63.80;152507.53;5041808;28;20447;-79
2022/02/26 11:58:53;;;;;;;5.83;3.10;;;;;;;4.32;62.10;152472.75;5023236;28;20486;-79
2022/02/26 12:01:28;;;;;;;3.17;2.77;;;;;;;4.41;61.78;152494.66;5022648;28;20954;-79
2022/02/26 12:04:10;;;;;;;3.87;2.23;;;;;;;4.32;61.13;152472.75;5024867;28;20463;-79
2022/02/26 12:06:58;;;;;;;6.00;2.67;;;;;;;4.31;59.97;152470.19;5007411;28;20527;-79
2022/02/26 12:09:57;;;;;;;5.37;3.60;;;;;;;4.45;60.60;152506.22;5020427;28;20460;-79